sensor_id;sensor_type;location;lat;lon;timestamp;P1;durP1;ratioP1;P2;durP2;ratioP2
11685;SDS011;5899;51.282;6.094;2023-02-14T00:01:55;20.75;;;14.05;;
11685;SDS011;5899;51.282;6.094;2023-02-14T00:04:23;17.70;;;12.18;;
11685;SDS011;5899;51.282;6.094;2023-02-14T00:06:49;15.95;;;10.95;;
11685;SDS011;5899;51.282;6.094;2023-02-14T00:09:16;14.65;;;9.60;;
11685;SDS011;5899;51.282;6.094;2023-02-14T00:11:43;12.68;;;9.35;;
11685;SDS011;5899;51.282;6.094;2023-02-14T00:14:10;14.80;;;10.23;;
11685;SDS011;5899;51.282;6.094;2023-02-14T00:16:54;13.90;;;9.70;;
11685;SDS011;5899;51.282;6.094;2023-02-14T00:19:22;14.48;;;9.38;;
11685;SDS011;5899;51.282;6.094;2023-02-14T00:21:51;12.88;;;9.57;;
11685;SDS011;5899;51.282;6.094;2023-02-14T00:24:19;13.68;;;9.27;;
11685;SDS011;5899;51.282;6.094;2023-02-14T00:26:45;13.65;;;10.30;;
11685;SDS011;5899;51.282;6.094;2023-02-14T00:29:13;13.83;;;10.43;;
11685;SDS011;5899;51.282;6.094;2023-02-14T00:31:41;13.73;;;9.95;;
11685;SDS011;5899;51.282;6.094;2023-02-14T00:34:08;14.27;;;9.88;;
11685;SDS011;5899;51.282;6.094;2023-02-14T00:36:36;12.95;;;9.93;;
11685;SDS011;5899;51.282;6.094;2023-02-14T00:39:03;13.60;;;9.90;;
11685;SDS011;5899;51.282;6.094;2023-02-14T00:41:29;13.30;;;9.10;;
11685;SDS011;5899;51.282;6.094;2023-02-14T00:43:56;13.68;;;9.65;;
11685;SDS011;5899;51.282;6.094;2023-02-14T00:46:23;11.82;;;8.63;;
11685;SDS011;5899;51.282;6.094;2023-02-14T00:48:49;11.60;;;8.10;;
11685;SDS011;5899;51.282;6.094;2023-02-14T00:51:16;12.20;;;9.00;;
11685;SDS011;5899;51.282;6.094;2023-02-14T00:53:45;12.40;;;7.87;;
11685;SDS011;5899;51.282;6.094;2023-02-14T00:56:12;12.05;;;7.93;;
11685;SDS011;5899;51.282;6.094;2023-02-14T00:58:38;10.77;;;8.00;;
11685;SDS011;5899;51.282;6.094;2023-02-14T01:01:05;10.60;;;8.25;;
11685;SDS011;5899;51.282;6.094;2023-02-14T01:03:32;12.30;;;7.63;;
11685;SDS011;5899;51.282;6.094;2023-02-14T01:05:59;8.80;;;7.03;;
11685;SDS011;5899;51.282;6.094;2023-02-14T01:08:26;8.88;;;7.30;;
11685;SDS011;5899;51.282;6.094;2023-02-14T01:10:54;11.63;;;7.28;;
11685;SDS011;5899;51.282;6.094;2023-02-14T01:13:20;10.88;;;7.38;;
11685;SDS011;5899;51.282;6.094;2023-02-14T01:15:48;8.40;;;7.27;;
11685;SDS011;5899;51.282;6.094;2023-02-14T01:18:15;10.07;;;7.70;;
11685;SDS011;5899;51.282;6.094;2023-02-14T01:20:42;9.80;;;7.30;;
11685;SDS011;5899;51.282;6.094;2023-02-14T01:23:11;12.45;;;8.27;;
11685;SDS011;5899;51.282;6.094;2023-02-14T01:25:40;11.00;;;8.00;;
11685;SDS011;5899;51.282;6.094;2023-02-14T01:28:08;9.77;;;7.10;;
11685;SDS011;5899;51.282;6.094;2023-02-14T01:30:34;10.33;;;7.67;;
11685;SDS011;5899;51.282;6.094;2023-02-14T01:33:01;10.68;;;7.57;;
11685;SDS011;5899;51.282;6.094;2023-02-14T01:35:27;10.88;;;7.60;;
11685;SDS011;5899;51.282;6.094;2023-02-14T01:37:54;9.30;;;7.77;;
11685;SDS011;5899;51.282;6.094;2023-02-14T01:40:20;8.65;;;6.95;;
11685;SDS011;5899;51.282;6.094;2023-02-14T01:43:01;9.52;;;7.47;;
11685;SDS011;5899;51.282;6.094;2023-02-14T01:45:29;9.53;;;7.07;;
11685;SDS011;5899;51.282;6.094;2023-02-14T01:47:56;8.57;;;6.90;;
11685;SDS011;5899;51.282;6.094;2023-02-14T01:50:24;11.02;;;7.32;;
11685;SDS011;5899;51.282;6.094;2023-02-14T01:52:52;8.82;;;6.82;;
11685;SDS011;5899;51.282;6.094;2023-02-14T01:55:20;7.55;;;6.57;;
11685;SDS011;5899;51.282;6.094;2023-02-14T01:57:48;9.65;;;6.75;;
11685;SDS011;5899;51.282;6.094;2023-02-14T02:00:16;8.52;;;6.80;;
11685;SDS011;5899;51.282;6.094;2023-02-14T02:03:01;9.73;;;7.10;;
11685;SDS011;5899;51.282;6.094;2023-02-14T02:05:29;8.40;;;6.57;;
11685;SDS011;5899;51.282;6.094;2023-02-14T02:07:56;9.50;;;6.55;;
11685;SDS011;5899;51.282;6.094;2023-02-14T02:10:24;7.80;;;6.43;;
11685;SDS011;5899;51.282;6.094;2023-02-14T02:12:51;10.90;;;6.85;;
11685;SDS011;5899;51.282;6.094;2023-02-14T02:15:18;8.35;;;6.60;;
11685;SDS011;5899;51.282;6.094;2023-02-14T02:17:47;8.30;;;6.85;;
11685;SDS011;5899;51.282;6.094;2023-02-14T02:20:27;9.07;;;6.68;;
11685;SDS011;5899;51.282;6.094;2023-02-14T02:23:06;8.40;;;6.72;;
11685;SDS011;5899;51.282;6.094;2023-02-14T02:25:41;7.90;;;6.57;;
11685;SDS011;5899;51.282;6.094;2023-02-14T02:28:24;8.23;;;6.45;;
11685;SDS011;5899;51.282;6.094;2023-02-14T02:31:00;8.55;;;6.63;;
11685;SDS011;5899;51.282;6.094;2023-02-14T02:33:50;9.88;;;6.43;;
11685;SDS011;5899;51.282;6.094;2023-02-14T02:36:25;7.60;;;5.97;;
11685;SDS011;5899;51.282;6.094;2023-02-14T02:39:00;7.63;;;6.30;;
11685;SDS011;5899;51.282;6.094;2023-02-14T02:41:31;8.25;;;6.25;;
11685;SDS011;5899;51.282;6.094;2023-02-14T02:44:02;10.67;;;7.10;;
11685;SDS011;5899;51.282;6.094;2023-02-14T02:46:38;8.25;;;6.60;;
11685;SDS011;5899;51.282;6.094;2023-02-14T02:49:16;9.82;;;7.28;;
11685;SDS011;5899;51.282;6.094;2023-02-14T02:52:02;8.27;;;6.80;;
11685;SDS011;5899;51.282;6.094;2023-02-14T02:54:48;9.70;;;6.80;;
11685;SDS011;5899;51.282;6.094;2023-02-14T02:57:18;8.38;;;6.82;;
11685;SDS011;5899;51.282;6.094;2023-02-14T02:59:48;11.13;;;6.95;;
11685;SDS011;5899;51.282;6.094;2023-02-14T03:02:19;10.00;;;7.00;;
11685;SDS011;5899;51.282;6.094;2023-02-14T03:04:49;9.07;;;7.30;;
11685;SDS011;5899;51.282;6.094;2023-02-14T03:07:20;8.90;;;6.70;;
11685;SDS011;5899;51.282;6.094;2023-02-14T03:10:00;8.98;;;6.80;;
11685;SDS011;5899;51.282;6.094;2023-02-14T03:15:21;9.23;;;7.07;;
11685;SDS011;5899;51.282;6.094;2023-02-14T03:17:54;18.23;;;7.50;;
11685;SDS011;5899;51.282;6.094;2023-02-14T03:20:22;9.73;;;8.13;;
11685;SDS011;5899;51.282;6.094;2023-02-14T03:22:53;9.80;;;7.28;;
11685;SDS011;5899;51.282;6.094;2023-02-14T03:25:23;10.23;;;7.70;;
11685;SDS011;5899;51.282;6.094;2023-02-14T03:27:53;9.93;;;7.40;;
11685;SDS011;5899;51.282;6.094;2023-02-14T03:30:23;8.55;;;7.15;;
11685;SDS011;5899;51.282;6.094;2023-02-14T03:32:58;11.05;;;8.43;;
11685;SDS011;5899;51.282;6.094;2023-02-14T03:35:29;10.07;;;7.78;;
11685;SDS011;5899;51.282;6.094;2023-02-14T03:38:04;10.40;;;7.93;;
11685;SDS011;5899;51.282;6.094;2023-02-14T03:40:33;10.05;;;7.60;;
11685;SDS011;5899;51.282;6.094;2023-02-14T03:43:03;11.10;;;8.33;;
11685;SDS011;5899;51.282;6.094;2023-02-14T03:45:34;12.23;;;7.70;;
11685;SDS011;5899;51.282;6.094;2023-02-14T03:48:03;10.95;;;7.82;;
11685;SDS011;5899;51.282;6.094;2023-02-14T03:50:31;12.85;;;8.02;;
11685;SDS011;5899;51.282;6.094;2023-02-14T03:52:59;9.38;;;7.25;;
11685;SDS011;5899;51.282;6.094;2023-02-14T03:55:30;11.50;;;7.30;;
11685;SDS011;5899;51.282;6.094;2023-02-14T03:58:00;10.77;;;8.07;;
11685;SDS011;5899;51.282;6.094;2023-02-14T04:00:29;10.82;;;7.45;;
11685;SDS011;5899;51.282;6.094;2023-02-14T04:03:02;9.90;;;7.22;;
11685;SDS011;5899;51.282;6.094;2023-02-14T04:05:31;9.33;;;7.43;;
11685;SDS011;5899;51.282;6.094;2023-02-14T04:07:58;9.60;;;6.70;;
11685;SDS011;5899;51.282;6.094;2023-02-14T04:10:27;8.60;;;6.90;;
11685;SDS011;5899;51.282;6.094;2023-02-14T04:12:54;10.13;;;7.07;;
11685;SDS011;5899;51.282;6.094;2023-02-14T04:15:21;14.35;;;7.18;;
11685;SDS011;5899;51.282;6.094;2023-02-14T04:17:48;10.38;;;6.88;;
11685;SDS011;5899;51.282;6.094;2023-02-14T04:20:31;8.77;;;6.40;;
11685;SDS011;5899;51.282;6.094;2023-02-14T04:23:00;9.85;;;7.13;;
11685;SDS011;5899;51.282;6.094;2023-02-14T04:25:27;11.18;;;7.47;;
11685;SDS011;5899;51.282;6.094;2023-02-14T04:27:55;11.20;;;7.03;;
11685;SDS011;5899;51.282;6.094;2023-02-14T04:30:21;9.43;;;7.00;;
11685;SDS011;5899;51.282;6.094;2023-02-14T04:32:48;7.50;;;6.53;;
11685;SDS011;5899;51.282;6.094;2023-02-14T04:35:14;8.87;;;7.03;;
11685;SDS011;5899;51.282;6.094;2023-02-14T04:37:41;10.50;;;7.43;;
11685;SDS011;5899;51.282;6.094;2023-02-14T04:40:08;9.75;;;7.68;;
11685;SDS011;5899;51.282;6.094;2023-02-14T04:42:35;11.38;;;6.88;;
11685;SDS011;5899;51.282;6.094;2023-02-14T04:45:03;10.88;;;7.32;;
11685;SDS011;5899;51.282;6.094;2023-02-14T04:47:29;10.05;;;7.15;;
11685;SDS011;5899;51.282;6.094;2023-02-14T04:49:58;7.80;;;6.85;;
11685;SDS011;5899;51.282;6.094;2023-02-14T04:52:24;10.50;;;7.63;;
11685;SDS011;5899;51.282;6.094;2023-02-14T04:54:51;9.75;;;6.55;;
11685;SDS011;5899;51.282;6.094;2023-02-14T04:57:17;10.65;;;7.07;;
11685;SDS011;5899;51.282;6.094;2023-02-14T04:59:44;9.07;;;6.75;;
11685;SDS011;5899;51.282;6.094;2023-02-14T05:02:12;8.13;;;7.20;;
11685;SDS011;5899;51.282;6.094;2023-02-14T05:04:38;8.93;;;7.07;;
11685;SDS011;5899;51.282;6.094;2023-02-14T05:07:05;7.73;;;6.93;;
11685;SDS011;5899;51.282;6.094;2023-02-14T05:09:31;8.85;;;7.10;;
11685;SDS011;5899;51.282;6.094;2023-02-14T05:11:58;12.05;;;7.80;;
11685;SDS011;5899;51.282;6.094;2023-02-14T05:14:24;10.53;;;7.50;;
11685;SDS011;5899;51.282;6.094;2023-02-14T05:16:51;9.65;;;7.10;;
11685;SDS011;5899;51.282;6.094;2023-02-14T05:19:19;11.07;;;7.30;;
11685;SDS011;5899;51.282;6.094;2023-02-14T05:21:47;9.60;;;7.68;;
11685;SDS011;5899;51.282;6.094;2023-02-14T05:24:14;10.80;;;7.25;;
11685;SDS011;5899;51.282;6.094;2023-02-14T05:26:42;10.30;;;7.32;;
11685;SDS011;5899;51.282;6.094;2023-02-14T05:29:08;10.23;;;7.40;;
11685;SDS011;5899;51.282;6.094;2023-02-14T05:31:35;9.80;;;7.65;;
11685;SDS011;5899;51.282;6.094;2023-02-14T05:34:01;10.52;;;7.10;;
11685;SDS011;5899;51.282;6.094;2023-02-14T05:36:29;11.25;;;7.45;;
11685;SDS011;5899;51.282;6.094;2023-02-14T05:38:56;9.85;;;7.68;;
11685;SDS011;5899;51.282;6.094;2023-02-14T05:41:22;10.95;;;7.68;;
11685;SDS011;5899;51.282;6.094;2023-02-14T05:43:49;9.80;;;7.45;;
11685;SDS011;5899;51.282;6.094;2023-02-14T05:46:15;9.70;;;7.63;;
11685;SDS011;5899;51.282;6.094;2023-02-14T05:48:42;10.30;;;8.03;;
11685;SDS011;5899;51.282;6.094;2023-02-14T05:51:09;12.20;;;7.65;;
11685;SDS011;5899;51.282;6.094;2023-02-14T05:53:38;10.45;;;7.45;;
11685;SDS011;5899;51.282;6.094;2023-02-14T05:56:05;13.07;;;8.25;;
11685;SDS011;5899;51.282;6.094;2023-02-14T05:58:32;17.13;;;8.30;;
11685;SDS011;5899;51.282;6.094;2023-02-14T06:00:58;11.05;;;7.72;;
11685;SDS011;5899;51.282;6.094;2023-02-14T06:03:35;10.73;;;7.72;;
11685;SDS011;5899;51.282;6.094;2023-02-14T06:06:05;13.25;;;8.68;;
11685;SDS011;5899;51.282;6.094;2023-02-14T06:08:33;12.60;;;7.78;;
11685;SDS011;5899;51.282;6.094;2023-02-14T06:11:01;21.02;;;8.00;;
11685;SDS011;5899;51.282;6.094;2023-02-14T06:13:27;11.02;;;8.07;;
11685;SDS011;5899;51.282;6.094;2023-02-14T06:15:54;12.73;;;8.93;;
11685;SDS011;5899;51.282;6.094;2023-02-14T06:18:20;11.40;;;8.43;;
11685;SDS011;5899;51.282;6.094;2023-02-14T06:20:54;11.63;;;8.63;;
11685;SDS011;5899;51.282;6.094;2023-02-14T06:23:23;14.30;;;9.27;;
11685;SDS011;5899;51.282;6.094;2023-02-14T06:25:50;14.50;;;9.13;;
11685;SDS011;5899;51.282;6.094;2023-02-14T06:28:18;16.35;;;9.75;;
11685;SDS011;5899;51.282;6.094;2023-02-14T06:30:44;15.00;;;9.80;;
11685;SDS011;5899;51.282;6.094;2023-02-14T06:33:11;16.67;;;10.07;;
11685;SDS011;5899;51.282;6.094;2023-02-14T06:35:38;15.38;;;10.27;;
11685;SDS011;5899;51.282;6.094;2023-02-14T06:38:04;16.85;;;10.70;;
11685;SDS011;5899;51.282;6.094;2023-02-14T06:40:31;15.88;;;10.68;;
11685;SDS011;5899;51.282;6.094;2023-02-14T06:42:58;16.80;;;10.55;;
11685;SDS011;5899;51.282;6.094;2023-02-14T06:45:30;14.77;;;10.37;;
11685;SDS011;5899;51.282;6.094;2023-02-14T06:48:07;17.97;;;10.60;;
11685;SDS011;5899;51.282;6.094;2023-02-14T06:50:48;13.65;;;9.82;;
11685;SDS011;5899;51.282;6.094;2023-02-14T06:53:28;15.90;;;10.38;;
11685;SDS011;5899;51.282;6.094;2023-02-14T06:55:56;16.10;;;10.20;;
11685;SDS011;5899;51.282;6.094;2023-02-14T06:58:29;14.60;;;10.67;;
11685;SDS011;5899;51.282;6.094;2023-02-14T07:00:57;15.50;;;10.88;;
11685;SDS011;5899;51.282;6.094;2023-02-14T07:03:27;14.35;;;10.23;;
11685;SDS011;5899;51.282;6.094;2023-02-14T07:05:53;15.35;;;10.23;;
11685;SDS011;5899;51.282;6.094;2023-02-14T07:08:23;15.13;;;10.07;;
11685;SDS011;5899;51.282;6.094;2023-02-14T07:10:54;16.33;;;10.10;;
11685;SDS011;5899;51.282;6.094;2023-02-14T07:13:21;15.20;;;9.55;;
11685;SDS011;5899;51.282;6.094;2023-02-14T07:15:48;14.13;;;10.43;;
11685;SDS011;5899;51.282;6.094;2023-02-14T07:18:19;13.80;;;10.25;;
11685;SDS011;5899;51.282;6.094;2023-02-14T07:20:47;17.15;;;10.52;;
11685;SDS011;5899;51.282;6.094;2023-02-14T07:23:16;17.77;;;10.83;;
11685;SDS011;5899;51.282;6.094;2023-02-14T07:25:42;15.23;;;10.23;;
11685;SDS011;5899;51.282;6.094;2023-02-14T07:28:09;16.63;;;10.20;;
11685;SDS011;5899;51.282;6.094;2023-02-14T07:30:36;15.65;;;10.57;;
11685;SDS011;5899;51.282;6.094;2023-02-14T07:33:02;14.73;;;10.45;;
11685;SDS011;5899;51.282;6.094;2023-02-14T07:35:31;18.27;;;12.47;;
11685;SDS011;5899;51.282;6.094;2023-02-14T07:37:59;19.93;;;12.90;;
11685;SDS011;5899;51.282;6.094;2023-02-14T07:40:40;19.15;;;12.25;;
11685;SDS011;5899;51.282;6.094;2023-02-14T07:43:11;20.50;;;12.52;;
11685;SDS011;5899;51.282;6.094;2023-02-14T07:45:37;20.93;;;12.80;;
11685;SDS011;5899;51.282;6.094;2023-02-14T07:48:04;20.05;;;12.80;;
11685;SDS011;5899;51.282;6.094;2023-02-14T07:50:33;25.27;;;13.80;;
11685;SDS011;5899;51.282;6.094;2023-02-14T07:53:06;20.45;;;13.63;;
11685;SDS011;5899;51.282;6.094;2023-02-14T07:55:33;21.42;;;13.70;;
11685;SDS011;5899;51.282;6.094;2023-02-14T07:58:00;20.95;;;13.45;;
11685;SDS011;5899;51.282;6.094;2023-02-14T08:00:29;19.02;;;13.75;;
11685;SDS011;5899;51.282;6.094;2023-02-14T08:03:01;19.50;;;13.50;;
11685;SDS011;5899;51.282;6.094;2023-02-14T08:05:28;19.95;;;14.20;;
11685;SDS011;5899;51.282;6.094;2023-02-14T08:07:57;19.47;;;14.00;;
11685;SDS011;5899;51.282;6.094;2023-02-14T08:10:24;19.13;;;12.90;;
11685;SDS011;5899;51.282;6.094;2023-02-14T08:12:52;21.10;;;14.32;;
11685;SDS011;5899;51.282;6.094;2023-02-14T08:15:25;20.48;;;14.63;;
11685;SDS011;5899;51.282;6.094;2023-02-14T08:18:14;20.85;;;14.52;;
11685;SDS011;5899;51.282;6.094;2023-02-14T08:20:47;20.13;;;13.50;;
11685;SDS011;5899;51.282;6.094;2023-02-14T08:23:15;21.05;;;13.80;;
11685;SDS011;5899;51.282;6.094;2023-02-14T08:25:42;21.00;;;13.80;;
11685;SDS011;5899;51.282;6.094;2023-02-14T08:28:10;22.88;;;14.52;;
11685;SDS011;5899;51.282;6.094;2023-02-14T08:30:39;22.25;;;13.90;;
11685;SDS011;5899;51.282;6.094;2023-02-14T08:33:06;21.40;;;15.10;;
11685;SDS011;5899;51.282;6.094;2023-02-14T08:35:33;22.13;;;15.40;;
11685;SDS011;5899;51.282;6.094;2023-02-14T08:38:02;20.20;;;14.80;;
11685;SDS011;5899;51.282;6.094;2023-02-14T08:40:33;24.25;;;15.38;;
11685;SDS011;5899;51.282;6.094;2023-02-14T08:43:02;20.02;;;15.07;;
11685;SDS011;5899;51.282;6.094;2023-02-14T08:45:31;20.38;;;15.23;;
11685;SDS011;5899;51.282;6.094;2023-02-14T08:48:04;25.63;;;16.27;;
11685;SDS011;5899;51.282;6.094;2023-02-14T08:50:34;21.60;;;14.80;;
11685;SDS011;5899;51.282;6.094;2023-02-14T08:53:04;19.77;;;14.40;;
11685;SDS011;5899;51.282;6.094;2023-02-14T08:55:32;19.55;;;14.43;;
11685;SDS011;5899;51.282;6.094;2023-02-14T08:57:59;19.23;;;13.77;;
11685;SDS011;5899;51.282;6.094;2023-02-14T09:00:28;19.73;;;13.80;;
11685;SDS011;5899;51.282;6.094;2023-02-14T09:02:54;19.90;;;13.40;;
11685;SDS011;5899;51.282;6.094;2023-02-14T09:05:21;18.60;;;13.47;;
11685;SDS011;5899;51.282;6.094;2023-02-14T09:07:50;18.20;;;12.32;;
11685;SDS011;5899;51.282;6.094;2023-02-14T09:10:17;18.02;;;13.35;;
11685;SDS011;5899;51.282;6.094;2023-02-14T09:12:50;18.08;;;12.68;;
11685;SDS011;5899;51.282;6.094;2023-02-14T09:15:18;19.98;;;12.48;;
11685;SDS011;5899;51.282;6.094;2023-02-14T09:17:48;18.60;;;13.02;;
11685;SDS011;5899;51.282;6.094;2023-02-14T09:20:29;16.48;;;12.23;;
11685;SDS011;5899;51.282;6.094;2023-02-14T09:22:55;17.30;;;12.55;;
11685;SDS011;5899;51.282;6.094;2023-02-14T09:25:32;17.02;;;12.77;;
11685;SDS011;5899;51.282;6.094;2023-02-14T09:28:00;15.98;;;12.35;;
11685;SDS011;5899;51.282;6.094;2023-02-14T09:30:28;15.93;;;12.33;;
11685;SDS011;5899;51.282;6.094;2023-02-14T09:32:55;17.55;;;12.20;;
11685;SDS011;5899;51.282;6.094;2023-02-14T09:35:21;16.55;;;11.82;;
11685;SDS011;5899;51.282;6.094;2023-02-14T09:37:52;16.08;;;12.00;;
11685;SDS011;5899;51.282;6.094;2023-02-14T09:40:36;16.67;;;12.50;;
11685;SDS011;5899;51.282;6.094;2023-02-14T09:43:05;16.13;;;11.57;;
11685;SDS011;5899;51.282;6.094;2023-02-14T09:45:35;15.23;;;11.80;;
11685;SDS011;5899;51.282;6.094;2023-02-14T09:48:03;16.37;;;11.53;;
11685;SDS011;5899;51.282;6.094;2023-02-14T09:50:32;19.45;;;12.40;;
11685;SDS011;5899;51.282;6.094;2023-02-14T09:53:12;16.33;;;12.20;;
11685;SDS011;5899;51.282;6.094;2023-02-14T09:55:42;19.13;;;11.88;;
11685;SDS011;5899;51.282;6.094;2023-02-14T09:58:14;17.95;;;12.52;;
11685;SDS011;5899;51.282;6.094;2023-02-14T10:00:43;18.70;;;12.40;;
11685;SDS011;5899;51.282;6.094;2023-02-14T10:03:30;16.75;;;12.40;;
11685;SDS011;5899;51.282;6.094;2023-02-14T10:06:04;15.18;;;11.40;;
11685;SDS011;5899;51.282;6.094;2023-02-14T10:08:40;17.00;;;11.87;;
11685;SDS011;5899;51.282;6.094;2023-02-14T10:11:10;18.15;;;11.75;;
11685;SDS011;5899;51.282;6.094;2023-02-14T10:13:45;16.45;;;12.05;;
11685;SDS011;5899;51.282;6.094;2023-02-14T10:16:15;17.65;;;12.10;;
11685;SDS011;5899;51.282;6.094;2023-02-14T10:18:44;16.65;;;11.48;;
11685;SDS011;5899;51.282;6.094;2023-02-14T10:21:13;18.38;;;11.90;;
11685;SDS011;5899;51.282;6.094;2023-02-14T10:23:44;18.25;;;12.18;;
11685;SDS011;5899;51.282;6.094;2023-02-14T10:26:13;18.38;;;12.50;;
11685;SDS011;5899;51.282;6.094;2023-02-14T10:28:42;21.10;;;13.48;;
11685;SDS011;5899;51.282;6.094;2023-02-14T10:31:16;13.85;;;10.75;;
11685;SDS011;5899;51.282;6.094;2023-02-14T10:33:46;13.45;;;10.55;;
11685;SDS011;5899;51.282;6.094;2023-02-14T10:36:20;14.35;;;10.93;;
11685;SDS011;5899;51.282;6.094;2023-02-14T10:38:53;13.18;;;10.23;;
11685;SDS011;5899;51.282;6.094;2023-02-14T10:41:25;14.00;;;11.40;;
11685;SDS011;5899;51.282;6.094;2023-02-14T10:43:56;14.65;;;11.30;;
11685;SDS011;5899;51.282;6.094;2023-02-14T10:46:31;16.75;;;11.10;;
11685;SDS011;5899;51.282;6.094;2023-02-14T10:49:01;16.27;;;10.93;;
11685;SDS011;5899;51.282;6.094;2023-02-14T10:51:34;14.18;;;10.73;;
11685;SDS011;5899;51.282;6.094;2023-02-14T10:54:15;13.68;;;10.77;;
11685;SDS011;5899;51.282;6.094;2023-02-14T10:56:48;13.48;;;10.45;;
11685;SDS011;5899;51.282;6.094;2023-02-14T10:59:21;12.80;;;10.47;;
11685;SDS011;5899;51.282;6.094;2023-02-14T11:01:52;13.63;;;10.27;;
11685;SDS011;5899;51.282;6.094;2023-02-14T11:04:24;12.93;;;9.98;;
11685;SDS011;5899;51.282;6.094;2023-02-14T11:06:54;12.48;;;9.98;;
11685;SDS011;5899;51.282;6.094;2023-02-14T11:09:23;13.00;;;10.20;;
11685;SDS011;5899;51.282;6.094;2023-02-14T11:11:50;15.20;;;11.30;;
11685;SDS011;5899;51.282;6.094;2023-02-14T11:14:23;14.85;;;10.90;;
11685;SDS011;5899;51.282;6.094;2023-02-14T11:16:55;14.48;;;10.10;;
11685;SDS011;5899;51.282;6.094;2023-02-14T11:19:30;14.05;;;10.45;;
11685;SDS011;5899;51.282;6.094;2023-02-14T11:21:58;12.90;;;10.10;;
11685;SDS011;5899;51.282;6.094;2023-02-14T11:24:28;12.67;;;10.00;;
11685;SDS011;5899;51.282;6.094;2023-02-14T11:27:05;15.00;;;10.30;;
11685;SDS011;5899;51.282;6.094;2023-02-14T11:29:40;13.38;;;9.88;;
11685;SDS011;5899;51.282;6.094;2023-02-14T11:32:08;14.40;;;10.25;;
11685;SDS011;5899;51.282;6.094;2023-02-14T11:34:39;15.38;;;10.07;;
11685;SDS011;5899;51.282;6.094;2023-02-14T11:37:24;13.65;;;10.05;;
11685;SDS011;5899;51.282;6.094;2023-02-14T11:39:53;12.73;;;9.37;;
11685;SDS011;5899;51.282;6.094;2023-02-14T11:42:32;11.98;;;9.38;;
11685;SDS011;5899;51.282;6.094;2023-02-14T11:44:59;10.82;;;9.27;;
11685;SDS011;5899;51.282;6.094;2023-02-14T11:47:28;13.23;;;10.23;;
11685;SDS011;5899;51.282;6.094;2023-02-14T11:50:00;12.10;;;9.65;;
11685;SDS011;5899;51.282;6.094;2023-02-14T11:52:30;11.88;;;9.50;;
11685;SDS011;5899;51.282;6.094;2023-02-14T11:54:57;12.55;;;9.57;;
11685;SDS011;5899;51.282;6.094;2023-02-14T11:57:26;11.90;;;9.23;;
11685;SDS011;5899;51.282;6.094;2023-02-14T11:59:58;11.50;;;9.27;;
11685;SDS011;5899;51.282;6.094;2023-02-14T12:02:30;12.80;;;9.35;;
11685;SDS011;5899;51.282;6.094;2023-02-14T12:04:59;13.20;;;9.68;;
11685;SDS011;5899;51.282;6.094;2023-02-14T12:07:30;10.50;;;9.10;;
11685;SDS011;5899;51.282;6.094;2023-02-14T12:10:14;13.52;;;9.45;;
11685;SDS011;5899;51.282;6.094;2023-02-14T12:12:47;12.17;;;9.63;;
11685;SDS011;5899;51.282;6.094;2023-02-14T12:15:24;11.10;;;8.80;;
11685;SDS011;5899;51.282;6.094;2023-02-14T12:17:52;11.98;;;9.18;;
11685;SDS011;5899;51.282;6.094;2023-02-14T12:20:24;13.73;;;9.35;;
11685;SDS011;5899;51.282;6.094;2023-02-14T12:22:59;11.90;;;8.50;;
11685;SDS011;5899;51.282;6.094;2023-02-14T12:25:32;12.40;;;9.45;;
11685;SDS011;5899;51.282;6.094;2023-02-14T12:28:08;11.38;;;9.15;;
11685;SDS011;5899;51.282;6.094;2023-02-14T12:30:35;13.38;;;9.63;;
11685;SDS011;5899;51.282;6.094;2023-02-14T12:33:02;10.70;;;8.82;;
11685;SDS011;5899;51.282;6.094;2023-02-14T12:35:37;13.20;;;8.77;;
11685;SDS011;5899;51.282;6.094;2023-02-14T12:38:07;12.52;;;9.27;;
11685;SDS011;5899;51.282;6.094;2023-02-14T12:40:41;10.90;;;8.70;;
11685;SDS011;5899;51.282;6.094;2023-02-14T12:43:18;13.00;;;9.13;;
11685;SDS011;5899;51.282;6.094;2023-02-14T12:45:53;12.48;;;9.63;;
11685;SDS011;5899;51.282;6.094;2023-02-14T12:48:32;10.93;;;9.10;;
11685;SDS011;5899;51.282;6.094;2023-02-14T12:51:06;12.25;;;9.20;;
11685;SDS011;5899;51.282;6.094;2023-02-14T12:53:42;11.60;;;8.97;;
11685;SDS011;5899;51.282;6.094;2023-02-14T12:56:14;13.00;;;8.80;;
11685;SDS011;5899;51.282;6.094;2023-02-14T12:58:51;11.35;;;8.60;;
11685;SDS011;5899;51.282;6.094;2023-02-14T13:01:34;12.38;;;8.85;;
11685;SDS011;5899;51.282;6.094;2023-02-14T13:06:49;10.80;;;8.50;;
11685;SDS011;5899;51.282;6.094;2023-02-14T13:09:21;11.82;;;9.13;;
11685;SDS011;5899;51.282;6.094;2023-02-14T13:11:57;10.35;;;8.07;;
11685;SDS011;5899;51.282;6.094;2023-02-14T13:14:30;10.18;;;7.95;;
11685;SDS011;5899;51.282;6.094;2023-02-14T13:17:06;10.55;;;7.97;;
11685;SDS011;5899;51.282;6.094;2023-02-14T13:19:36;10.48;;;8.25;;
11685;SDS011;5899;51.282;6.094;2023-02-14T13:22:09;11.68;;;8.13;;
11685;SDS011;5899;51.282;6.094;2023-02-14T13:24:39;11.50;;;8.07;;
11685;SDS011;5899;51.282;6.094;2023-02-14T13:27:08;12.68;;;8.57;;
11685;SDS011;5899;51.282;6.094;2023-02-14T13:29:43;13.32;;;8.70;;
11685;SDS011;5899;51.282;6.094;2023-02-14T13:32:12;12.47;;;9.10;;
11685;SDS011;5899;51.282;6.094;2023-02-14T13:34:40;12.20;;;9.07;;
11685;SDS011;5899;51.282;6.094;2023-02-14T13:37:13;12.87;;;9.20;;
11685;SDS011;5899;51.282;6.094;2023-02-14T13:39:42;12.82;;;9.23;;
11685;SDS011;5899;51.282;6.094;2023-02-14T13:42:09;11.45;;;8.82;;
11685;SDS011;5899;51.282;6.094;2023-02-14T13:44:42;10.38;;;8.45;;
11685;SDS011;5899;51.282;6.094;2023-02-14T13:47:14;11.43;;;8.63;;
11685;SDS011;5899;51.282;6.094;2023-02-14T13:49:45;12.63;;;9.27;;
11685;SDS011;5899;51.282;6.094;2023-02-14T13:52:15;13.37;;;9.40;;
11685;SDS011;5899;51.282;6.094;2023-02-14T13:55:01;14.05;;;10.27;;
11685;SDS011;5899;51.282;6.094;2023-02-14T13:57:31;11.43;;;9.43;;
11685;SDS011;5899;51.282;6.094;2023-02-14T14:03:03;13.75;;;9.27;;
11685;SDS011;5899;51.282;6.094;2023-02-14T14:11:10;15.27;;;9.65;;
11685;SDS011;5899;51.282;6.094;2023-02-14T14:13:58;10.65;;;8.85;;
11685;SDS011;5899;51.282;6.094;2023-02-14T14:16:26;14.20;;;9.63;;
11685;SDS011;5899;51.282;6.094;2023-02-14T14:18:55;12.18;;;9.13;;
11685;SDS011;5899;51.282;6.094;2023-02-14T14:21:28;14.27;;;9.25;;
11685;SDS011;5899;51.282;6.094;2023-02-14T14:24:04;13.52;;;9.45;;
11685;SDS011;5899;51.282;6.094;2023-02-14T14:26:35;12.63;;;9.80;;
11685;SDS011;5899;51.282;6.094;2023-02-14T14:29:02;13.07;;;9.18;;
11685;SDS011;5899;51.282;6.094;2023-02-14T14:31:47;12.90;;;9.23;;
11685;SDS011;5899;51.282;6.094;2023-02-14T14:34:20;12.33;;;9.53;;
11685;SDS011;5899;51.282;6.094;2023-02-14T14:36:48;12.00;;;9.73;;
11685;SDS011;5899;51.282;6.094;2023-02-14T14:39:26;12.20;;;9.43;;
11685;SDS011;5899;51.282;6.094;2023-02-14T14:41:54;12.82;;;9.30;;
11685;SDS011;5899;51.282;6.094;2023-02-14T14:44:21;12.30;;;9.88;;
11685;SDS011;5899;51.282;6.094;2023-02-14T14:46:51;13.75;;;9.90;;
11685;SDS011;5899;51.282;6.094;2023-02-14T14:49:17;13.75;;;10.02;;
11685;SDS011;5899;51.282;6.094;2023-02-14T14:51:46;12.63;;;9.55;;
11685;SDS011;5899;51.282;6.094;2023-02-14T14:54:19;12.63;;;9.07;;
11685;SDS011;5899;51.282;6.094;2023-02-14T14:56:47;12.57;;;9.85;;
11685;SDS011;5899;51.282;6.094;2023-02-14T14:59:17;13.40;;;9.97;;
11685;SDS011;5899;51.282;6.094;2023-02-14T15:01:46;12.13;;;8.77;;
11685;SDS011;5899;51.282;6.094;2023-02-14T15:04:15;13.07;;;9.38;;
11685;SDS011;5899;51.282;6.094;2023-02-14T15:06:47;13.55;;;10.05;;
11685;SDS011;5899;51.282;6.094;2023-02-14T15:09:15;13.63;;;9.35;;
11685;SDS011;5899;51.282;6.094;2023-02-14T15:11:42;13.80;;;9.18;;
11685;SDS011;5899;51.282;6.094;2023-02-14T15:14:28;12.88;;;9.63;;
11685;SDS011;5899;51.282;6.094;2023-02-14T15:16:56;13.73;;;9.95;;
11685;SDS011;5899;51.282;6.094;2023-02-14T15:19:24;14.15;;;9.40;;